This is the latest recevied weather packets stored in our database for station/object K4GDX. If no packets are shown the sender has not sent any weather packets the latest 10 day(s).
| Time | Temp. | Humidity | Pressure | Rain* | Wind** | Luminosity | Snow |
|---|---|---|---|---|---|---|---|
| 1777386672 | 25.56° C | 74% | 1020.5 hPa | 0 mm | - | 274 W/m² | - |
| 1777386371 | 25.56° C | 74% | 1020.5 hPa | 0 mm | - | 237 W/m² | - |
| 1777386064 | 26.11° C | 73% | 1020.5 hPa | 0 mm | - | 183 W/m² | - |
| 1777385767 | 26.11° C | 73% | 1020.4 hPa | 0 mm | - | 255 W/m² | - |
| 1777385464 | 26.11° C | 75% | 1020.4 hPa | 0 mm | - | 817 W/m² | - |
| 1777385168 | 26.67° C | 72% | 1020.3 hPa | 0 mm | - | 308 W/m² | - |
| 1777384864 | 26.67° C | 76% | 1020.4 hPa | 0 mm | - | 749 W/m² | - |
| 1777384564 | 26.11° C | 76% | 1020.2 hPa | 0 mm | - | 728 W/m² | - |
| 1777384263 | 25.56° C | 80% | 1020.2 hPa | 0 mm | - | 703 W/m² | - |
| 1777383964 | 25.56° C | 78% | 1020.2 hPa | 0.25 mm | - | 659 W/m² | - |
| 1777383664 | 25° C | 79% | 1020.2 hPa | 0.25 mm | - | 766 W/m² | - |
| 1777383363 | 25° C | 78% | 1020.2 hPa | 0.25 mm | - | 294 W/m² | - |
| 1777383063 | 25° C | 78% | 1020.2 hPa | 0.25 mm | - | 142 W/m² | - |
| 1777382761 | 25° C | 80% | 1020.2 hPa | 0.25 mm | - | 561 W/m² | - |
| 1777382460 | 24.44° C | 80% | 1020.3 hPa | 0.25 mm | - | 487 W/m² | - |
| 1777382155 | 24.44° C | 80% | 1020.2 hPa | 0.25 mm | - | 462 W/m² | - |
| 1777381850 | 24.44° C | 82% | 1020.2 hPa | 0.25 mm | - | 475 W/m² | - |
| 1777381550 | 23.89° C | 81% | 1020.2 hPa | 0.25 mm | - | 237 W/m² | - |
| 1777381256 | 23.89° C | 83% | 1020.1 hPa | 0.25 mm | - | 243 W/m² | - |
| 1777380946 | 23.33° C | 83% | 1020 hPa | 0.25 mm | - | 341 W/m² | - |
| 1777380647 | 23.33° C | 83% | 1020 hPa | 0.25 mm | - | 364 W/m² | - |
| 1777380342 | 23.33° C | 83% | 1019.8 hPa | 0 mm | - | 350 W/m² | - |
| 1777380038 | 23.33° C | 84% | 1019.7 hPa | 0 mm | - | 330 W/m² | - |
| 1777379735 | 22.78° C | 87% | 1019.7 hPa | 0 mm | - | 313 W/m² | - |
| 1777379432 | 22.22° C | 89% | 1019.5 hPa | 0 mm | - | 294 W/m² | - |
* Rain latest hour (hover to see other rain measurements)
** Current wind speed in m/s (hover to see current wind gust speed)